Time;durP1;ratioP1;P1;durP2;ratioP2;P2;SDS_P1;SDS_P2;PMS_P1;PMS_P2;Temp;Humidity;BMP_temperature;BMP_pressure;BME280_temperature;BME280_humidity;BME280_pressure;Samples;Min_cycle;Max_cycle;Signal;HPM_P1;HPM_P2
2022/08/29 00:00:43;;;;;;;1.10;1.10;;;21.50;99.90;;;;;;5025003;28;20204;-64
2022/08/29 00:03:11;;;;;;;1.57;1.47;;;21.50;99.90;;;;;;5024477;28;20288;-64
2022/08/29 00:05:38;;;;;;;1.20;1.20;;;21.50;99.90;;;;;;5019605;28;20240;-63
2022/08/29 00:08:06;;;;;;;1.27;1.27;;;21.50;99.90;;;;;;5022035;28;20288;-63
2022/08/29 00:10:35;;;;;;;1.30;1.20;;;21.50;99.90;;;;;;5020567;28;20296;-64
2022/08/29 00:13:02;;;;;;;1.20;1.20;;;21.40;99.90;;;;;;5027120;28;20611;-62
2022/08/29 00:15:29;;;;;;;1.37;1.30;;;21.30;99.90;;;;;;5030408;28;20243;-64
2022/08/29 00:17:56;;;;;;;1.50;1.40;;;21.20;99.90;;;;;;5031545;28;20204;-61
2022/08/29 00:20:27;;;;;;;0.93;0.93;;;21.20;99.90;;;;;;5031358;28;20209;-61
2022/08/29 00:22:54;;;;;;;1.17;1.17;;;21.30;99.90;;;;;;5031249;28;20205;-64
2022/08/29 00:25:22;;;;;;;1.30;1.30;;;21.30;99.90;;;;;;5030557;28;20209;-64
2022/08/29 00:27:49;;;;;;;1.63;1.40;;;21.20;99.90;;;;;;5031506;28;20212;-63
2022/08/29 00:30:17;;;;;;;1.10;1.10;;;21.20;99.90;;;;;;5031583;28;20266;-63
2022/08/29 00:32:44;;;;;;;1.20;1.20;;;21.20;99.90;;;;;;5031019;28;20766;-64
2022/08/29 00:35:14;;;;;;;1.10;1.10;;;21.20;99.90;;;;;;5030787;28;20205;-64
2022/08/29 00:37:43;;;;;;;1.00;1.00;;;21.20;99.90;;;;;;5030764;28;20255;-61
2022/08/29 00:40:14;;;;;;;1.03;1.03;;;21.30;99.90;;;;;;5031221;28;20296;-62
2022/08/29 00:42:41;;;;;;;1.23;1.23;;;21.30;99.90;;;;;;5031002;28;20232;-62
2022/08/29 00:45:12;;;;;;;1.10;1.10;;;21.40;99.90;;;;;;5030802;28;20280;-60
2022/08/29 00:47:43;;;;;;;1.20;1.20;;;21.40;99.90;;;;;;5031042;28;20231;-62
2022/08/29 00:50:19;;;;;;;1.03;1.03;;;21.30;99.90;;;;;;5028795;28;20663;-62
2022/08/29 00:52:49;;;;;;;1.10;1.10;;;21.20;99.90;;;;;;5031027;28;20593;-62
2022/08/29 00:55:21;;;;;;;1.20;1.20;;;21.10;99.90;;;;;;5028163;28;20285;-61
2022/08/29 00:57:52;;;;;;;1.13;1.13;;;21.00;99.90;;;;;;5030697;28;20224;-62
2022/08/29 01:00:20;;;;;;;1.30;1.30;;;21.00;99.90;;;;;;5030540;28;20209;-61
2022/08/29 01:02:47;;;;;;;1.20;1.20;;;20.90;99.90;;;;;;5031166;28;20203;-60
2022/08/29 01:05:16;;;;;;;1.50;1.40;;;20.90;99.90;;;;;;5029663;28;20399;-63
2022/08/29 01:07:44;;;;;;;1.30;1.30;;;20.80;99.90;;;;;;5030517;28;20255;-63
2022/08/29 01:12:14;;;;;;;1.60;1.50;;;20.90;99.90;;;;;;5029898;28;20214;-63
2022/08/29 01:13:01;;;;;;;1.23;1.20;;;20.80;99.90;;;;;;5030285;28;20231;-61
2022/08/29 01:15:30;;;;;;;1.40;1.40;;;20.70;99.90;;;;;;5029904;28;20208;-62
2022/08/29 01:17:58;;;;;;;1.33;1.27;;;20.60;99.90;;;;;;5030879;28;20946;-64
2022/08/29 01:20:31;;;;;;;1.27;1.27;;;20.50;99.90;;;;;;5029480;28;20571;-64
2022/08/29 01:23:04;;;;;;;1.30;1.30;;;20.50;99.90;;;;;;5026103;28;20204;-63
2022/08/29 01:25:38;;;;;;;1.43;1.40;;;20.50;99.90;;;;;;5030286;28;20572;-62
2022/08/29 01:28:11;;;;;;;1.20;1.20;;;20.50;99.90;;;;;;5026496;28;20201;-63
2022/08/29 01:30:57;;;;;;;1.27;1.27;;;20.50;99.90;;;;;;5024595;28;20200;-62
2022/08/29 01:33:24;;;;;;;1.30;1.30;;;20.40;99.90;;;;;;5027679;28;20228;-62
2022/08/29 01:35:52;;;;;;;1.30;1.30;;;20.50;99.90;;;;;;5029958;28;20259;-61
2022/08/29 01:38:26;;;;;;;1.30;1.30;;;20.50;99.90;;;;;;5030111;28;20690;-60
2022/08/29 01:40:55;;;;;;;1.10;1.10;;;20.50;99.90;;;;;;5030503;28;20669;-61
2022/08/29 01:43:23;;;;;;;1.50;1.40;;;20.50;99.90;;;;;;5026783;28;20211;-61
2022/08/29 01:45:50;;;;;;;1.40;1.40;;;20.50;99.90;;;;;;5027158;28;20242;-60
2022/08/29 01:48:17;;;;;;;1.50;1.40;;;20.40;99.90;;;;;;5029570;28;20203;-57
2022/08/29 01:50:45;;;;;;;1.47;1.37;;;20.30;99.90;;;;;;5030032;28;20284;-58
2022/08/29 01:53:12;;;;;;;1.40;1.30;;;20.50;99.90;;;;;;5029739;28;20311;-57
2022/08/29 01:55:39;;;;;;;1.20;1.20;;;20.60;99.90;;;;;;5030117;28;20205;-58
2022/08/29 01:58:08;;;;;;;1.20;1.20;;;20.80;99.90;;;;;;5029974;28;20622;-57
2022/08/29 02:00:35;;;;;;;1.20;1.20;;;20.90;99.90;;;;;;5030096;28;20296;-59
2022/08/29 02:03:02;;;;;;;1.27;1.27;;;21.10;99.90;;;;;;5034456;28;20268;-57
2022/08/29 02:05:30;;;;;;;1.40;1.40;;;21.10;99.90;;;;;;5032663;28;20204;-57
2022/08/29 02:07:57;;;;;;;1.53;1.50;;;20.80;99.90;;;;;;5029971;28;20327;-57
2022/08/29 02:10:25;;;;;;;1.20;1.20;;;20.80;99.90;;;;;;5029964;28;20207;-57
2022/08/29 02:12:52;;;;;;;1.20;1.20;;;20.90;99.90;;;;;;5034189;28;20217;-57
2022/08/29 02:15:21;;;;;;;1.40;1.38;;;20.90;99.90;;;;;;5035790;28;20216;-57
2022/08/29 02:17:47;;;;;;;1.30;1.30;;;20.80;99.90;;;;;;5035652;28;20229;-59
2022/08/29 02:20:15;;;;;;;1.10;1.10;;;20.80;99.90;;;;;;5042012;28;20205;-59
2022/08/29 02:22:42;;;;;;;1.30;1.30;;;20.80;99.90;;;;;;5039309;28;20212;-58
2022/08/29 02:27:57;;;;;;;1.47;1.37;;;20.70;99.90;;;;;;5031254;28;20254;-58
2022/08/29 02:30:26;;;;;;;1.40;1.40;;;20.50;99.90;;;;;;5031110;28;20212;-58
2022/08/29 02:32:54;;;;;;;1.20;1.20;;;20.40;99.90;;;;;;5031623;28;20231;-59
2022/08/29 02:35:21;;;;;;;1.23;1.23;;;20.40;99.90;;;;;;5030908;28;20227;-60
2022/08/29 02:37:48;;;;;;;1.30;1.30;;;20.50;99.90;;;;;;5030972;28;20706;-57
2022/08/29 02:40:15;;;;;;;1.27;1.27;;;20.60;99.90;;;;;;5031606;28;20648;-58
2022/08/29 02:42:42;;;;;;;1.57;1.50;;;20.60;99.90;;;;;;5030859;28;20201;-58
2022/08/29 02:45:10;;;;;;;1.50;1.40;;;20.70;99.90;;;;;;5032844;28;20267;-57
2022/08/29 02:47:38;;;;;;;1.30;1.30;;;20.60;99.90;;;;;;5032236;28;20598;-60
2022/08/29 02:50:06;;;;;;;1.33;1.33;;;20.50;99.90;;;;;;5032707;28;20296;-59
2022/08/29 02:52:33;;;;;;;1.50;1.40;;;20.50;99.90;;;;;;5024254;28;20569;-60
2022/08/29 02:55:00;;;;;;;1.50;1.40;;;20.40;99.90;;;;;;5032373;28;20232;-58
2022/08/29 02:57:27;;;;;;;1.60;1.50;;;20.40;99.90;;;;;;5031624;28;20311;-61
2022/08/29 02:59:54;;;;;;;1.60;1.50;;;20.30;99.90;;;;;;5032605;28;20296;-58
2022/08/29 03:02:21;;;;;;;1.60;1.50;;;20.20;99.90;;;;;;5032350;28;20208;-58
2022/08/29 03:04:49;;;;;;;1.23;1.23;;;20.00;99.90;;;;;;5032446;28;20196;-58
2022/08/29 03:07:16;;;;;;;1.50;1.50;;;20.10;99.90;;;;;;5031227;28;20228;-60
2022/08/29 03:09:42;;;;;;;1.43;1.33;;;20.10;99.90;;;;;;5032141;28;21023;-61
2022/08/29 03:12:09;;;;;;;1.50;1.40;;;20.00;99.90;;;;;;5031902;28;20211;-60
2022/08/29 03:14:36;;;;;;;2.10;1.37;;;20.00;99.90;;;;;;5032200;28;20581;-60
2022/08/29 03:17:03;;;;;;;1.40;1.40;;;20.00;99.90;;;;;;5031497;28;20216;-61
2022/08/29 03:19:30;;;;;;;1.40;1.30;;;20.10;99.90;;;;;;5031771;28;20667;-60
2022/08/29 03:21:59;;;;;;;1.30;1.30;;;20.10;99.90;;;;;;5031688;28;20211;-60
2022/08/29 03:24:26;;;;;;;1.40;1.30;;;20.10;99.90;;;;;;5031654;28;20235;-60
2022/08/29 03:26:53;;;;;;;1.50;1.40;;;20.10;99.90;;;;;;5031391;28;20220;-59
2022/08/29 03:29:20;;;;;;;1.60;1.50;;;20.10;99.90;;;;;;5032608;28;20215;-56
2022/08/29 03:31:47;;;;;;;1.30;1.30;;;20.00;99.90;;;;;;5032865;28;20663;-58
2022/08/29 03:34:14;;;;;;;1.47;1.37;;;20.00;99.90;;;;;;5031934;28;20713;-59
2022/08/29 03:36:41;;;;;;;1.47;1.37;;;19.90;99.90;;;;;;5031210;28;20243;-59
2022/08/29 03:39:09;;;;;;;1.30;1.30;;;19.90;99.90;;;;;;5031545;28;20215;-61
2022/08/29 03:41:36;;;;;;;1.33;1.33;;;19.90;99.90;;;;;;5031806;28;20254;-60
2022/08/29 03:44:03;;;;;;;1.37;1.37;;;19.90;99.90;;;;;;5032606;28;20244;-59
2022/08/29 03:46:30;;;;;;;1.50;1.40;;;19.80;99.90;;;;;;5031014;28;20225;-58
2022/08/29 03:48:57;;;;;;;1.30;1.30;;;19.90;99.90;;;;;;5031898;28;20666;-58
2022/08/29 03:51:24;;;;;;;1.20;1.20;;;19.80;99.90;;;;;;5031756;28;20208;-58
2022/08/29 03:53:51;;;;;;;1.37;1.37;;;19.80;99.90;;;;;;5031259;28;20268;-58
2022/08/29 03:56:19;;;;;;;1.50;1.40;;;19.70;99.90;;;;;;5030451;28;20574;-58
2022/08/29 03:58:46;;;;;;;1.57;1.47;;;19.60;99.90;;;;;;5031411;28;20893;-60
2022/08/29 04:01:15;;;;;;;1.20;1.20;;;19.60;99.90;;;;;;5031387;28;20208;-61
2022/08/29 04:03:42;;;;;;;1.30;1.30;;;19.50;99.90;;;;;;5031076;28;20204;-60
2022/08/29 04:06:09;;;;;;;1.30;1.30;;;19.50;99.90;;;;;;5030196;28;20224;-58
2022/08/29 04:08:36;;;;;;;1.50;1.40;;;19.50;99.90;;;;;;5030986;28;20215;-60
2022/08/29 04:11:09;;;;;;;1.30;1.30;;;19.50;99.90;;;;;;5031481;28;20290;-59
2022/08/29 04:13:37;;;;;;;1.50;1.40;;;19.40;99.90;;;;;;5024701;28;20217;-59
2022/08/29 04:16:11;;;;;;;1.33;1.30;;;19.30;99.90;;;;;;5030082;28;20220;-60
2022/08/29 04:18:38;;;;;;;1.47;1.40;;;19.20;99.90;;;;;;5024317;28;20286;-59
2022/08/29 04:21:06;;;;;;;1.40;1.40;;;19.20;99.90;;;;;;5030923;28;20291;-59
2022/08/29 04:23:35;;;;;;;1.43;1.43;;;19.10;99.90;;;;;;5030370;28;20544;-59
2022/08/29 04:26:03;;;;;;;1.30;1.30;;;19.10;99.90;;;;;;5030272;28;20220;-60
2022/08/29 04:28:30;;;;;;;2.07;1.23;;;19.10;99.90;;;;;;5030504;28;20222;-59
2022/08/29 04:30:58;;;;;;;1.30;1.30;;;19.20;99.90;;;;;;5030788;28;20225;-61
2022/08/29 04:33:26;;;;;;;1.20;1.20;;;19.30;99.90;;;;;;5029811;28;20224;-59
2022/08/29 04:35:53;;;;;;;1.20;1.20;;;19.30;99.90;;;;;;5030240;28;20311;-65
2022/08/29 04:38:20;;;;;;;1.30;1.30;;;19.40;99.90;;;;;;5030838;28;20604;-65
2022/08/29 04:40:47;;;;;;;1.33;1.33;;;19.40;99.90;;;;;;5031228;28;20251;-65
2022/08/29 04:43:14;;;;;;;1.30;1.30;;;19.40;99.90;;;;;;5030040;28;20300;-65
2022/08/29 04:45:41;;;;;;;1.50;1.40;;;19.30;99.90;;;;;;5029497;28;20663;-65
2022/08/29 04:48:09;;;;;;;1.47;1.40;;;19.20;99.90;;;;;;5030352;28;20204;-63
2022/08/29 04:50:36;;;;;;;1.50;1.40;;;19.20;99.90;;;;;;5022968;28;20677;-65
2022/08/29 04:53:03;;;;;;;1.73;1.50;;;19.30;99.90;;;;;;5030082;28;20226;-65
2022/08/29 04:55:30;;;;;;;1.50;1.50;;;19.40;99.90;;;;;;5029381;28;20314;-65
2022/08/29 04:57:57;;;;;;;1.60;1.60;;;19.50;99.90;;;;;;5030449;28;20236;-65
2022/08/29 05:00:28;;;;;;;1.60;1.50;;;19.40;99.90;;;;;;5027899;28;21119;-65
2022/08/29 05:02:55;;;;;;;1.80;1.70;;;19.30;99.90;;;;;;5029311;28;20776;-64
2022/08/29 05:05:26;;;;;;;1.70;1.60;;;19.10;99.90;;;;;;5029182;28;20651;-63
2022/08/29 05:07:53;;;;;;;1.63;1.53;;;18.90;99.90;;;;;;5030093;28;20212;-63
2022/08/29 05:10:22;;;;;;;1.70;1.60;;;18.90;99.90;;;;;;5030162;28;20213;-64
2022/08/29 05:12:49;;;;;;;1.63;1.53;;;19.00;99.90;;;;;;5030035;28;20204;-63
2022/08/29 05:15:17;;;;;;;1.73;1.60;;;19.10;99.90;;;;;;5032509;28;20220;-64
2022/08/29 05:17:44;;;;;;;1.60;1.50;;;19.00;99.90;;;;;;5033955;28;20224;-63
2022/08/29 05:20:12;;;;;;;1.70;1.60;;;19.10;99.90;;;;;;5033433;28;20675;-64
2022/08/29 05:22:41;;;;;;;1.30;1.30;;;19.00;99.90;;;;;;5028216;28;20878;-65
2022/08/29 05:25:09;;;;;;;1.60;1.50;;;18.90;99.90;;;;;;5031370;28;20197;-64
2022/08/29 05:27:36;;;;;;;1.43;1.40;;;18.90;99.90;;;;;;5027501;28;20618;-63
2022/08/29 05:30:04;;;;;;;1.83;1.73;;;18.90;99.90;;;;;;5030999;28;20292;-63
2022/08/29 05:32:31;;;;;;;1.70;1.60;;;18.90;99.90;;;;;;5025283;28;20208;-63
2022/08/29 05:34:59;;;;;;;1.80;1.70;;;18.90;99.90;;;;;;5030514;28;20215;-60
2022/08/29 05:37:26;;;;;;;1.30;1.30;;;19.00;99.90;;;;;;5028903;28;20316;-61
2022/08/29 05:39:55;;;;;;;1.60;1.50;;;19.00;99.90;;;;;;5030484;28;20201;-61
2022/08/29 05:42:22;;;;;;;1.40;1.33;;;18.80;99.90;;;;;;5030532;28;20201;-61
2022/08/29 05:44:49;;;;;;;1.40;1.30;;;18.80;99.90;;;;;;5029782;28;20224;-61
2022/08/29 05:47:18;;;;;;;1.37;1.33;;;18.80;99.90;;;;;;5024346;28;20221;-61
2022/08/29 05:49:46;;;;;;;1.70;1.60;;;18.80;99.90;;;;;;5026526;28;20204;-62
2022/08/29 05:52:15;;;;;;;5.97;1.77;;;18.70;99.90;;;;;;5027798;28;20581;-62
2022/08/29 05:54:43;;;;;;;1.50;1.47;;;18.70;99.90;;;;;;5022474;28;20231;-61
2022/08/29 05:57:13;;;;;;;1.57;1.47;;;18.70;99.90;;;;;;5027391;28;20711;-60
2022/08/29 05:59:40;;;;;;;1.20;1.20;;;18.70;99.90;;;;;;5034085;28;20307;-60
2022/08/29 06:02:10;;;;;;;1.50;1.50;;;18.60;99.90;;;;;;5033720;28;20660;-62
2022/08/29 06:04:37;;;;;;;1.50;1.43;;;18.60;99.90;;;;;;5030787;28;20735;-62
2022/08/29 06:07:05;;;;;;;1.60;1.50;;;18.60;99.90;;;;;;5034009;28;20224;-62
2022/08/29 06:09:32;;;;;;;1.60;1.50;;;18.80;99.90;;;;;;5028742;28;20201;-62
2022/08/29 06:11:59;;;;;;;1.60;1.50;;;18.90;99.90;;;;;;5033872;28;20287;-62
2022/08/29 06:14:27;;;;;;;1.47;1.40;;;19.00;99.90;;;;;;5035376;28;20311;-61
2022/08/29 06:16:55;;;;;;;1.80;1.70;;;19.00;99.90;;;;;;5031651;28;20220;-61
2022/08/29 06:19:22;;;;;;;4.07;1.70;;;18.90;99.90;;;;;;5035513;28;20229;-62
2022/08/29 06:21:49;;;;;;;1.60;1.50;;;18.90;99.90;;;;;;5033299;28;20204;-60
2022/08/29 06:24:17;;;;;;;1.73;1.63;;;18.90;99.90;;;;;;5032910;28;20205;-59
2022/08/29 06:26:44;;;;;;;1.60;1.50;;;19.00;99.90;;;;;;5032023;28;20323;-61
2022/08/29 06:29:13;;;;;;;1.67;1.57;;;19.10;99.90;;;;;;5025527;28;20633;-62
2022/08/29 06:31:42;;;;;;;1.20;1.20;;;19.10;99.90;;;;;;5031420;28;20211;-62
2022/08/29 06:34:09;;;;;;;1.33;1.33;;;19.20;99.90;;;;;;5033309;28;20295;-60
2022/08/29 06:36:36;;;;;;;2.60;1.70;;;19.20;99.90;;;;;;5033674;28;20224;-62
2022/08/29 06:39:07;;;;;;;1.60;1.50;;;19.20;99.90;;;;;;5032144;28;20201;-62
2022/08/29 06:41:34;;;;;;;1.50;1.40;;;19.20;99.90;;;;;;5024053;28;20546;-62
2022/08/29 06:44:02;;;;;;;1.63;1.53;;;19.20;99.90;;;;;;5034016;28;20204;-62
2022/08/29 06:46:30;;;;;;;1.50;1.50;;;19.30;99.90;;;;;;5031451;28;20220;-62
2022/08/29 06:49:00;;;;;;;1.87;1.43;;;19.40;99.90;;;;;;5033917;28;20746;-60
2022/08/29 06:51:31;;;;;;;1.60;1.50;;;19.40;99.90;;;;;;5033153;28;20201;-60
2022/08/29 06:53:58;;;;;;;1.63;1.53;;;19.50;99.90;;;;;;5032685;28;20219;-61
2022/08/29 06:56:25;;;;;;;1.80;1.70;;;19.50;99.90;;;;;;5032553;28;20247;-60
2022/08/29 06:58:52;;;;;;;1.73;1.63;;;19.40;99.90;;;;;;5033668;28;20201;-61
2022/08/29 07:01:20;;;;;;;1.87;1.77;;;19.20;99.90;;;;;;5031944;28;20204;-60
2022/08/29 07:03:47;;;;;;;1.70;1.60;;;19.30;99.90;;;;;;5032808;28;20211;-60
2022/08/29 07:06:16;;;;;;;1.70;1.60;;;19.40;99.90;;;;;;5033138;28;20233;-60
2022/08/29 07:08:44;;;;;;;1.70;1.60;;;19.40;99.90;;;;;;5032376;28;20201;-60
2022/08/29 07:11:11;;;;;;;1.40;1.40;;;19.50;99.90;;;;;;5033950;28;20197;-61
2022/08/29 07:13:38;;;;;;;1.90;1.80;;;19.60;99.90;;;;;;5032846;28;20272;-60
2022/08/29 07:16:08;;;;;;;1.77;1.67;;;19.60;99.90;;;;;;5032073;28;20267;-60
2022/08/29 07:18:35;;;;;;;1.70;1.60;;;19.60;99.90;;;;;;5027653;28;20232;-61
2022/08/29 07:21:05;;;;;;;1.40;1.40;;;19.70;99.90;;;;;;5025799;28;20205;-61
2022/08/29 07:23:34;;;;;;;1.77;1.60;;;19.80;99.90;;;;;;5031027;28;20841;-60
2022/08/29 07:26:07;;;;;;;1.70;1.60;;;19.90;99.90;;;;;;5032453;28;20633;-60
2022/08/29 07:28:35;;;;;;;1.37;1.30;;;19.90;99.90;;;;;;5027175;28;20212;-60
2022/08/29 07:31:02;;;;;;;1.57;1.47;;;20.00;99.90;;;;;;5030745;28;20291;-61
2022/08/29 07:33:29;;;;;;;1.37;1.37;;;20.20;99.90;;;;;;5032840;28;20664;-62
2022/08/29 07:35:56;;;;;;;1.23;1.23;;;20.40;99.90;;;;;;5027480;28;20236;-60
2022/08/29 07:38:22;;;;;;;1.60;1.50;;;20.60;99.90;;;;;;5018535;28;20256;-59
2022/08/29 07:40:57;;;;;;;1.60;1.50;;;20.50;99.90;;;;;;5026696;28;20200;-63
2022/08/29 07:43:24;;;;;;;1.40;1.30;;;20.40;99.90;;;;;;5028552;28;20207;-60
2022/08/29 07:45:51;;;;;;;1.60;1.50;;;20.70;99.90;;;;;;5022980;28;20252;-61
2022/08/29 07:48:18;;;;;;;1.60;1.50;;;20.90;99.90;;;;;;5019938;28;20232;-61
2022/08/29 07:50:45;;;;;;;1.70;1.60;;;21.10;99.90;;;;;;5020348;28;20202;-61
2022/08/29 07:53:12;;;;;;;1.50;1.40;;;21.30;99.90;;;;;;5024387;28;20220;-61
2022/08/29 07:55:39;;;;;;;1.40;1.40;;;21.40;99.90;;;;;;5023686;28;20221;-61
2022/08/29 07:58:08;;;;;;;1.63;1.53;;;21.60;99.90;;;;;;5021717;28;20196;-61
2022/08/29 08:00:35;;;;;;;1.60;1.50;;;21.80;99.90;;;;;;5021096;28;20617;-60
2022/08/29 08:03:02;;;;;;;1.60;1.50;;;21.90;99.90;;;;;;5033848;28;20656;-60
2022/08/29 08:05:29;;;;;;;1.60;1.50;;;22.00;99.90;;;;;;5030410;28;20197;-61
2022/08/29 08:07:56;;;;;;;1.70;1.60;;;22.20;99.90;;;;;;5029290;28;20701;-61
2022/08/29 08:10:23;;;;;;;1.70;1.60;;;22.20;99.90;;;;;;5031921;28;20272;-61
2022/08/29 08:12:50;;;;;;;1.80;1.70;;;22.30;99.90;;;;;;5030666;28;20209;-61
2022/08/29 08:15:20;;;;;;;1.70;1.60;;;22.50;99.90;;;;;;5028504;28;20223;-61
2022/08/29 08:17:47;;;;;;;2.00;1.73;;;22.50;99.90;;;;;;5033825;28;20790;-61
2022/08/29 08:20:15;;;;;;;2.00;1.60;;;22.30;99.90;;;;;;5031984;28;20200;-60
2022/08/29 08:22:41;;;;;;;1.53;1.43;;;22.20;99.90;;;;;;5027598;28;20295;-60
2022/08/29 08:25:09;;;;;;;1.57;1.47;;;22.40;99.90;;;;;;5032196;28;20201;-60
2022/08/29 08:27:36;;;;;;;1.33;1.30;;;22.60;99.90;;;;;;5027037;28;20224;-63
2022/08/29 08:30:03;;;;;;;1.60;1.50;;;22.90;99.90;;;;;;5031418;28;20201;-61
2022/08/29 08:32:32;;;;;;;1.60;1.50;;;22.90;99.90;;;;;;5028192;28;20575;-61
2022/08/29 08:34:59;;;;;;;1.70;1.60;;;22.90;99.90;;;;;;5030741;28;20266;-61
2022/08/29 08:37:26;;;;;;;1.57;1.47;;;22.80;99.90;;;;;;5029064;28;20312;-61
2022/08/29 08:39:56;;;;;;;1.40;1.40;;;22.80;99.90;;;;;;5033644;28;20200;-61
2022/08/29 08:42:32;;;;;;;1.77;1.67;;;22.90;99.90;;;;;;5029177;28;20578;-61
2022/08/29 08:45:08;;;;;;;1.40;1.30;;;22.90;99.90;;;;;;5029386;28;20192;-60
2022/08/29 08:47:42;;;;;;;1.50;1.40;;;23.00;99.90;;;;;;5023102;28;20255;-63
2022/08/29 08:50:16;;;;;;;1.50;1.40;;;23.10;99.90;;;;;;5031858;28;20304;-62
2022/08/29 08:52:46;;;;;;;1.67;1.57;;;23.30;99.90;;;;;;5025728;28;20310;-62
2022/08/29 08:55:25;;;;;;;1.63;1.53;;;23.40;99.90;;;;;;5032472;28;20266;-63
2022/08/29 08:58:01;;;;;;;2.07;1.60;;;23.40;99.90;;;;;;5031443;28;20283;-63
2022/08/29 09:00:36;;;;;;;1.97;1.30;;;23.50;99.90;;;;;;5031918;28;20745;-62
2022/08/29 09:03:13;;;;;;;1.40;1.30;;;23.60;99.90;;;;;;5029138;28;20286;-62
2022/08/29 09:05:51;;;;;;;1.43;1.37;;;23.60;99.90;;;;;;5023433;28;20204;-62
2022/08/29 09:08:26;;;;;;;1.53;1.43;;;23.60;99.90;;;;;;5031116;28;20208;-61
2022/08/29 09:10:59;;;;;;;1.73;1.30;;;23.80;99.90;;;;;;5032113;28;20192;-62
2022/08/29 09:13:38;;;;;;;1.40;1.30;;;23.90;99.90;;;;;;5030227;28;20300;-62
2022/08/29 09:16:13;;;;;;;1.40;1.30;;;24.00;99.90;;;;;;5032436;28;20777;-61
2022/08/29 09:18:43;;;;;;;1.40;1.40;;;24.10;99.90;;;;;;5030886;28;20628;-61
2022/08/29 09:21:13;;;;;;;1.57;1.47;;;24.10;99.90;;;;;;5037088;28;20599;-61
2022/08/29 09:23:45;;;;;;;1.73;1.50;;;24.20;99.90;;;;;;5041669;28;20211;-61
2022/08/29 09:26:12;;;;;;;1.73;1.63;;;24.30;99.90;;;;;;5038759;28;20705;-62
2022/08/29 09:28:39;;;;;;;1.60;1.50;;;24.40;99.90;;;;;;5036747;28;20247;-62
2022/08/29 09:31:24;;;;;;;1.40;1.30;;;24.40;99.90;;;;;;5033597;28;20204;-60
2022/08/29 09:33:54;;;;;;;1.60;1.50;;;24.60;99.90;;;;;;5031748;28;20199;-60
2022/08/29 09:36:37;;;;;;;1.40;1.30;;;24.60;99.90;;;;;;5032409;28;20319;-60
2022/08/29 09:39:22;;;;;;;1.30;1.30;;;24.50;99.90;;;;;;5040367;28;20720;-63
2022/08/29 09:41:52;;;;;;;1.50;1.40;;;24.60;99.90;;;;;;5029966;28;20215;-61
2022/08/29 09:44:22;;;;;;;1.37;1.27;;;24.80;99.90;;;;;;5037553;28;20209;-61
2022/08/29 09:47:08;;;;;;;1.40;1.30;;;24.90;99.90;;;;;;5030994;28;20271;-61
2022/08/29 09:49:38;;;;;;;1.35;1.25;;;24.90;99.90;;;;;;5027525;28;20634;-62
2022/08/29 09:52:12;;;;;;;1.37;1.33;;;24.90;99.90;;;;;;5026269;28;20658;-61
2022/08/29 09:54:40;;;;;;;1.23;1.23;;;24.80;99.90;;;;;;5023895;28;20221;-61
2022/08/29 09:57:12;;;;;;;1.30;1.30;;;24.80;99.90;;;;;;5026585;28;20606;-62
2022/08/29 09:59:42;;;;;;;1.70;1.60;;;25.10;99.90;;;;;;5028786;28;20228;-61
2022/08/29 10:02:21;;;;;;;1.60;1.40;;;25.30;99.90;;;;;;5032096;28;20201;-61
2022/08/29 10:04:53;;;;;;;2.17;1.40;;;25.40;99.90;;;;;;5023438;28;20286;-61
2022/08/29 10:07:22;;;;;;;1.17;1.15;;;25.60;99.90;;;;;;5028912;28;20239;-62
2022/08/29 10:10:01;;;;;;;1.50;1.40;;;25.80;99.90;;;;;;5035602;28;20295;-62
2022/08/29 10:12:45;;;;;;;1.20;1.20;;;26.10;99.90;;;;;;5031018;28;20211;-61
2022/08/29 10:15:18;;;;;;;1.57;1.47;;;26.10;99.90;;;;;;5035748;28;20223;-63
2022/08/29 10:20:48;;;;;;;1.10;1.10;;;26.50;99.90;;;;;;5035439;28;20207;-62
2022/08/29 10:23:23;;;;;;;1.30;1.30;;;26.70;99.90;;;;;;5034129;28;20231;-63
2022/08/29 10:25:50;;;;;;;1.47;1.33;;;26.70;99.90;;;;;;5035451;28;20224;-61
2022/08/29 10:28:28;;;;;;;1.30;1.20;;;26.80;99.90;;;;;;5031375;28;20283;-62
2022/08/29 10:31:01;;;;;;;1.27;1.23;;;27.00;99.90;;;;;;5031343;28;20231;-62
2022/08/29 10:33:51;;;;;;;1.27;1.15;;;27.10;99.90;;;;;;5032225;28;20295;-63
2022/08/29 10:36:25;;;;;;;1.55;1.45;;;27.30;99.90;;;;;;5034037;28;20315;-63
2022/08/29 10:38:58;;;;;;;1.20;1.10;;;27.30;99.90;;;;;;5034291;28;20231;-62
2022/08/29 10:41:33;;;;;;;1.20;1.20;;;27.30;99.90;;;;;;5033319;28;20758;-61
2022/08/29 10:44:16;;;;;;;1.58;1.48;;;27.20;99.90;;;;;;5028960;28;20211;-61
2022/08/29 10:46:57;;;;;;;1.45;1.35;;;27.30;99.90;;;;;;5031980;28;20221;-61
2022/08/29 10:49:39;;;;;;;1.10;1.10;;;27.20;99.90;;;;;;5032848;28;20208;-61
2022/08/29 10:52:15;;;;;;;1.40;1.30;;;27.30;99.90;;;;;;5038893;28;20287;-61
2022/08/29 10:54:52;;;;;;;1.60;1.50;;;27.50;99.90;;;;;;5031266;28;20204;-62
2022/08/29 10:57:35;;;;;;;1.20;1.20;;;27.50;99.90;;;;;;5031306;28;20266;-62
2022/08/29 11:00:06;;;;;;;1.63;1.30;;;27.40;99.90;;;;;;5028391;28;20200;-62
2022/08/29 11:02:38;;;;;;;1.20;1.20;;;27.50;99.90;;;;;;5031716;28;20254;-62
2022/08/29 11:05:11;;;;;;;1.85;1.75;;;27.50;99.90;;;;;;5032148;28;20697;-60
2022/08/29 11:07:46;;;;;;;1.92;1.38;;;27.70;99.90;;;;;;5031171;28;20323;-61
2022/08/29 11:10:16;;;;;;;1.00;1.00;;;27.60;99.90;;;;;;5032621;28;20204;-61
2022/08/29 11:12:48;;;;;;;1.20;1.20;;;27.80;99.90;;;;;;5032140;28;20660;-61
2022/08/29 11:15:20;;;;;;;1.60;1.50;;;27.80;99.90;;;;;;5033762;28;20287;-61
2022/08/29 11:17:53;;;;;;;1.17;1.17;;;27.80;99.90;;;;;;5035369;28;20725;-61
2022/08/29 11:20:25;;;;;;;1.45;1.35;;;28.00;99.90;;;;;;5033142;28;20212;-61
2022/08/29 11:22:58;;;;;;;1.40;1.40;;;28.00;99.90;;;;;;5031351;28;20204;-62
2022/08/29 11:25:24;;;;;;;1.10;1.10;;;28.20;99.90;;;;;;5031232;28;20212;-61
2022/08/29 11:28:00;;;;;;;1.40;1.30;;;28.10;99.90;;;;;;5029659;28;20220;-61
2022/08/29 11:30:33;;;;;;;1.00;1.00;;;28.20;99.90;;;;;;5031905;28;20202;-61
2022/08/29 11:33:07;;;;;;;1.95;1.60;;;28.30;99.90;;;;;;5034866;28;20212;-62
2022/08/29 11:35:45;;;;;;;1.13;1.13;;;28.50;99.90;;;;;;5031354;28;20299;-61
2022/08/29 11:38:51;;;;;;;1.95;1.80;;;28.50;99.90;;;;;;5031153;28;20667;-62
2022/08/29 11:41:29;;;;;;;1.23;1.23;;;28.30;99.90;;;;;;5030368;28;20246;-62
2022/08/29 11:44:14;;;;;;;1.40;1.30;;;28.30;99.90;;;;;;5029806;28;20587;-62
2022/08/29 11:46:43;;;;;;;1.15;1.15;;;28.40;99.90;;;;;;5029656;28;20224;-63
2022/08/29 11:49:26;;;;;;;1.48;1.38;;;28.60;99.90;;;;;;5031050;28;20204;-62
2022/08/29 11:51:55;;;;;;;1.20;1.20;;;28.60;99.90;;;;;;5019625;28;20197;-62
2022/08/29 11:55:04;;;;;;;1.30;1.20;;;28.60;99.90;;;;;;5031746;28;20204;-63
2022/08/29 11:57:50;;;;;;;1.40;1.30;;;28.80;99.90;;;;;;5020314;28;20681;-62
2022/08/29 12:00:27;;;;;;;1.40;1.30;;;28.60;99.90;;;;;;5029445;28;20204;-62
2022/08/29 12:02:54;;;;;;;1.40;1.30;;;28.70;99.90;;;;;;5026686;28;20200;-62
2022/08/29 12:05:48;;;;;;;1.50;1.20;;;28.70;99.90;;;;;;5031865;28;20590;-62
2022/08/29 12:08:23;;;;;;;1.10;1.10;;;28.70;99.90;;;;;;5028877;28;20300;-62
2022/08/29 12:10:53;;;;;;;1.40;1.30;;;28.90;99.90;;;;;;5031643;28;20208;-62
2022/08/29 12:13:55;;;;;;;1.00;1.00;;;29.00;99.90;;;;;;5030555;28;20464;-61
2022/08/29 12:16:27;;;;;;;1.20;1.20;;;29.30;99.90;;;;;;5028914;28;20271;-61
2022/08/29 12:18:56;;;;;;;1.40;1.30;;;29.40;99.90;;;;;;5031365;28;20279;-61
2022/08/29 12:21:45;;;;;;;1.17;1.15;;;29.50;99.90;;;;;;5028264;28;20209;-61
2022/08/29 12:24:44;;;;;;;1.00;1.00;;;29.50;99.90;;;;;;5028266;28;20207;-61
2022/08/29 12:27:59;;;;;;;2.05;1.40;;;29.40;99.90;;;;;;4989470;28;20225;-60
2022/08/29 12:30:27;;;;;;;1.10;1.10;;;29.50;99.90;;;;;;5059121;22;20743;-66
2022/08/29 12:33:07;;;;;;;1.60;1.50;;;29.70;99.90;;;;;;5071308;28;20324;-66
2022/08/29 12:36:05;;;;;;;1.27;1.10;;;29.70;99.90;;;;;;5070217;28;20214;-66
2022/08/29 12:38:39;;;;;;;1.40;1.30;;;29.70;99.90;;;;;;5070515;28;20592;-66
2022/08/29 12:41:26;;;;;;;1.55;1.45;;;29.60;99.90;;;;;;5061444;28;20195;-66
2022/08/29 12:43:57;;;;;;;1.20;1.20;;;29.50;99.90;;;;;;5044933;28;20299;-66
2022/08/29 12:46:29;;;;;;;1.45;1.35;;;29.40;99.90;;;;;;5054655;28;20204;-65
2022/08/29 12:49:06;;;;;;;1.25;1.25;;;29.50;99.90;;;;;;5063122;28;20314;-66
2022/08/29 12:51:38;;;;;;;1.20;1.20;;;29.50;99.90;;;;;;5061155;28;20550;-65
2022/08/29 12:54:06;;;;;;;1.35;0.98;;;29.50;99.90;;;;;;5062630;28;20203;-65
2022/08/29 12:56:34;;;;;;;1.95;1.10;;;29.50;99.90;;;;;;5062270;28;20215;-64
2022/08/29 12:59:03;;;;;;;1.10;1.10;;;29.70;99.90;;;;;;5062121;28;20250;-66
2022/08/29 13:01:33;;;;;;;1.50;1.40;;;29.90;99.90;;;;;;5060717;28;20666;-65
2022/08/29 13:04:06;;;;;;;1.50;1.40;;;30.00;99.90;;;;;;5058314;28;20608;-64
2022/08/29 13:06:34;;;;;;;1.45;1.35;;;30.10;99.90;;;;;;5061387;28;20599;-65
2022/08/29 13:09:01;;;;;;;1.27;1.20;;;30.00;99.90;;;;;;5063565;28;20302;-66
2022/08/29 13:11:30;;;;;;;1.38;1.30;;;29.60;99.90;;;;;;5052435;28;20226;-66